createdAt,value
2017-09-15T00:00:26.589Z,84.41
2017-09-15T00:01:26.584Z,84.50
2017-09-15T00:02:26.592Z,84.27
2017-09-15T00:03:26.581Z,84.56
2017-09-15T00:04:26.576Z,83.89
2017-09-15T00:05:26.580Z,84.17
2017-09-15T00:06:26.572Z,85.03
2017-09-15T00:07:26.577Z,84.46
2017-09-15T00:08:26.578Z,84.36
2017-09-15T00:09:26.573Z,85.55
2017-09-15T00:10:26.575Z,84.69
2017-09-15T00:11:26.573Z,84.88
2017-09-15T00:12:26.571Z,84.98
2017-09-15T00:13:26.570Z,84.31
2017-09-15T00:14:26.569Z,84.50
2017-09-15T00:15:26.566Z,85.27
2017-09-15T00:16:26.565Z,83.93
2017-09-15T00:17:26.563Z,84.98
2017-09-15T00:18:26.563Z,85.74
2017-09-15T00:19:26.574Z,86.12
2017-09-15T00:20:26.565Z,84.69
2017-09-15T00:21:26.561Z,84.69
2017-09-15T00:22:26.557Z,84.22
2017-09-15T00:23:26.556Z,84.98
2017-09-15T00:24:26.553Z,84.22
2017-09-15T00:25:26.554Z,84.98
2017-09-15T00:26:26.553Z,84.69
2017-09-15T00:27:26.554Z,84.79
2017-09-15T00:28:26.553Z,85.64
2017-09-15T00:29:26.551Z,85.22
2017-09-15T00:30:26.549Z,85.64
2017-09-15T00:31:26.550Z,86.51
2017-09-15T00:32:26.562Z,86.12
2017-09-15T00:33:26.544Z,85.70
2017-09-15T00:34:26.558Z,86.22
2017-09-15T00:35:26.542Z,87.07
2017-09-15T00:36:26.542Z,86.22
2017-09-15T00:37:26.543Z,86.60
2017-09-15T00:38:26.538Z,87.07
2017-09-15T00:39:26.551Z,86.60
2017-09-15T00:40:26.540Z,86.27
2017-09-15T00:41:26.537Z,85.84
2017-09-15T00:42:26.533Z,85.36
2017-09-15T00:43:26.536Z,85.46
2017-09-15T00:44:26.533Z,85.93
2017-09-15T00:45:26.530Z,84.50
2017-09-15T00:46:26.529Z,84.98
2017-09-15T00:47:26.535Z,83.55
2017-09-15T00:48:26.534Z,83.17
2017-09-15T00:49:26.524Z,83.74
2017-09-15T00:50:26.538Z,83.93
2017-09-15T00:51:26.523Z,84.22
2017-09-15T00:52:26.538Z,84.03
2017-09-15T00:53:26.521Z,83.93
2017-09-15T00:54:26.519Z,83.74
2017-09-15T00:55:26.529Z,84.31
2017-09-15T00:56:26.518Z,83.74
2017-09-15T00:57:26.518Z,84.12
2017-09-15T00:58:26.514Z,84.88
2017-09-15T00:59:26.516Z,83.07
2017-09-15T01:00:26.515Z,83.74
2017-09-15T01:01:26.672Z,83.84
2017-09-15T01:02:26.510Z,83.45
2017-09-15T01:03:26.511Z,83.36
2017-09-15T01:04:26.547Z,83.65
2017-09-15T01:05:26.532Z,84.22
2017-09-15T01:06:26.514Z,83.45
2017-09-15T01:07:26.506Z,82.79
2017-09-15T01:08:26.503Z,83.17
2017-09-15T01:09:26.505Z,83.17
2017-09-15T01:10:26.507Z,82.50
2017-09-15T01:11:26.505Z,82.41
2017-09-15T01:12:26.506Z,83.65
2017-09-15T01:13:26.507Z,83.65
2017-09-15T01:14:26.501Z,83.17
2017-09-15T01:15:26.500Z,84.12
2017-09-15T01:16:26.499Z,83.55
2017-09-15T01:17:26.499Z,84.41
2017-09-15T01:18:26.496Z,84.12
2017-09-15T01:19:26.494Z,83.55
2017-09-15T01:20:26.499Z,84.03
2017-09-15T01:21:26.494Z,84.03
2017-09-15T01:22:26.496Z,83.36
2017-09-15T01:23:26.494Z,83.17
2017-09-15T01:24:26.494Z,82.98
2017-09-15T01:25:26.490Z,83.74
2017-09-15T01:26:26.491Z,83.36
2017-09-15T01:27:26.493Z,83.07
2017-09-15T01:28:26.488Z,83.65
2017-09-15T01:29:26.488Z,82.89
2017-09-15T01:30:26.492Z,83.17
2017-09-15T01:31:26.499Z,83.74
2017-09-15T01:32:26.485Z,83.17
2017-09-15T01:33:26.486Z,83.93
2017-09-15T01:34:26.482Z,83.55
2017-09-15T01:35:26.484Z,83.17
2017-09-15T01:36:26.479Z,83.36
2017-09-15T01:37:26.476Z,83.55
2017-09-15T01:38:26.495Z,83.17
2017-09-15T01:39:26.481Z,83.55
2017-09-15T01:40:26.482Z,83.07
2017-09-15T01:41:26.478Z,83.93
2017-09-15T01:42:26.478Z,83.74
2017-09-15T01:43:26.476Z,83.55
2017-09-15T01:44:26.474Z,84.50
2017-09-15T01:45:26.476Z,83.84
2017-09-15T01:46:26.470Z,83.26
2017-09-15T01:47:26.471Z,84.79
2017-09-15T01:48:26.484Z,84.22
2017-09-15T01:49:26.472Z,83.93
2017-09-15T01:50:26.472Z,84.03
2017-09-15T01:51:26.471Z,83.74
2017-09-15T01:52:26.471Z,84.50
2017-09-15T01:53:26.469Z,83.93
2017-09-15T01:54:26.468Z,84.41
2017-09-15T01:55:26.467Z,84.98
2017-09-15T01:56:26.468Z,84.69
2017-09-15T01:57:26.466Z,84.69
2017-09-15T01:58:26.464Z,85.74
2017-09-15T01:59:26.463Z,86.51
2017-09-15T02:00:26.482Z,85.84
2017-09-15T02:01:26.466Z,86.51
2017-09-15T02:02:26.462Z,85.55
2017-09-15T02:03:26.462Z,86.22
2017-09-15T02:04:26.461Z,85.84
2017-09-15T02:05:26.460Z,86.69
2017-09-15T02:06:26.459Z,86.51
2017-09-15T02:07:26.460Z,86.41
2017-09-15T02:08:26.457Z,86.69
2017-09-15T02:09:26.459Z,86.69
2017-09-15T02:10:26.459Z,87.17
2017-09-15T02:11:26.456Z,86.60
2017-09-15T02:12:26.455Z,86.03
2017-09-15T02:13:26.455Z,86.41
2017-09-15T02:14:26.455Z,85.84
2017-09-15T02:15:26.454Z,86.41
2017-09-15T02:16:26.448Z,86.22
2017-09-15T02:17:26.451Z,85.74
2017-09-15T02:18:26.450Z,86.03
2017-09-15T02:19:26.450Z,86.22
2017-09-15T02:20:26.456Z,85.64
2017-09-15T02:21:26.448Z,86.12
2017-09-15T02:22:26.447Z,86.22
2017-09-15T02:23:26.446Z,85.64
2017-09-15T02:24:26.448Z,86.12
2017-09-15T02:25:26.443Z,86.79
2017-09-15T02:26:26.447Z,86.51
2017-09-15T02:27:26.446Z,86.32
2017-09-15T02:28:26.446Z,85.64
2017-09-15T02:29:26.441Z,85.55
2017-09-15T02:30:26.442Z,85.55
2017-09-15T02:31:26.442Z,84.60
2017-09-15T02:32:26.440Z,83.93
2017-09-15T02:33:26.441Z,84.03
2017-09-15T02:34:26.441Z,84.03
2017-09-15T02:35:26.439Z,85.27
2017-09-15T02:36:26.438Z,84.60
2017-09-15T02:37:26.439Z,85.17
2017-09-15T02:38:26.434Z,84.31
2017-09-15T02:39:26.438Z,84.50
2017-09-15T02:40:26.440Z,84.31
2017-09-15T02:41:26.437Z,84.50
2017-09-15T02:42:26.431Z,84.22
2017-09-15T02:43:26.434Z,84.50
2017-09-15T02:44:26.436Z,83.55
2017-09-15T02:45:26.446Z,83.07
2017-09-15T02:46:26.432Z,83.17
2017-09-15T02:47:26.433Z,83.84
2017-09-15T02:48:26.433Z,83.55
2017-09-15T02:49:26.431Z,83.78
2017-09-15T02:50:26.431Z,84.45
2017-09-15T02:51:26.427Z,84.55
2017-09-15T02:52:26.496Z,83.02
2017-09-15T02:53:26.431Z,82.73
2017-09-15T02:54:26.429Z,84.07
2017-09-15T02:55:26.431Z,83.12
2017-09-15T02:56:26.428Z,83.78
2017-09-15T02:57:26.426Z,83.21
2017-09-15T02:58:26.427Z,83.12
2017-09-15T02:59:26.424Z,83.97
2017-09-15T03:00:26.431Z,83.78
2017-09-15T03:01:26.425Z,83.12
2017-09-15T03:02:26.420Z,83.12
2017-09-15T03:03:26.424Z,83.88
2017-09-15T03:04:26.423Z,83.78
2017-09-15T03:05:26.422Z,83.31
2017-09-15T03:06:26.419Z,83.12
2017-09-15T03:07:26.421Z,83.31
2017-09-15T03:08:26.420Z,82.83
2017-09-15T03:09:26.419Z,83.40
2017-09-15T03:10:26.420Z,83.97
2017-09-15T03:11:26.421Z,82.83
2017-09-15T03:12:26.416Z,83.59
2017-09-15T03:13:26.420Z,83.02
2017-09-15T03:14:26.421Z,82.45
2017-09-15T03:15:26.416Z,82.45
2017-09-15T03:16:26.420Z,83.59
2017-09-15T03:17:26.416Z,83.02
2017-09-15T03:18:26.414Z,82.83
2017-09-15T03:19:26.414Z,82.54
2017-09-15T03:20:26.431Z,83.59
2017-09-15T03:21:26.410Z,83.21
2017-09-15T03:22:26.412Z,83.69
2017-09-15T03:23:26.414Z,83.21
2017-09-15T03:24:26.451Z,82.17
2017-09-15T03:25:26.412Z,82.54
2017-09-15T03:26:26.411Z,83.21
2017-09-15T03:27:26.413Z,83.50
2017-09-15T03:28:26.411Z,82.64
2017-09-15T03:29:26.404Z,82.17
2017-09-15T03:30:26.409Z,82.35
2017-09-15T03:31:26.414Z,82.17
2017-09-15T03:32:26.409Z,82.17
2017-09-15T03:33:26.407Z,81.30
2017-09-15T03:34:26.407Z,81.97
2017-09-15T03:35:26.401Z,81.49
2017-09-15T03:36:26.407Z,82.73
2017-09-15T03:37:26.407Z,82.54
2017-09-15T03:38:26.408Z,81.88
2017-09-15T03:39:26.409Z,83.50
2017-09-15T03:40:26.409Z,82.83
2017-09-15T03:41:26.406Z,82.17
2017-09-15T03:42:26.407Z,82.45
2017-09-15T03:43:26.403Z,81.97
2017-09-15T03:44:26.408Z,81.68
2017-09-15T03:45:26.400Z,82.07
2017-09-15T03:46:26.404Z,82.83
2017-09-15T03:47:26.402Z,83.50
2017-09-15T03:48:26.400Z,83.31
2017-09-15T03:49:26.403Z,82.64
2017-09-15T03:50:26.400Z,82.35
2017-09-15T03:51:26.401Z,82.54
2017-09-15T03:52:26.400Z,83.69
2017-09-15T03:53:26.399Z,82.73
2017-09-15T03:54:26.399Z,82.45
2017-09-15T03:55:26.407Z,83.02
2017-09-15T03:56:26.397Z,83.50
2017-09-15T03:57:26.396Z,83.21
2017-09-15T03:58:26.396Z,83.02
2017-09-15T03:59:26.394Z,84.26
2017-09-15T04:00:26.398Z,84.45
2017-09-15T04:01:26.392Z,84.07
2017-09-15T04:02:26.396Z,83.69
2017-09-15T04:03:26.401Z,84.07
2017-09-15T04:04:26.395Z,84.07
2017-09-15T04:05:26.394Z,84.45
2017-09-15T04:06:26.394Z,84.26
2017-09-15T04:07:26.394Z,85.02
2017-09-15T04:08:26.392Z,84.64
2017-09-15T04:09:26.391Z,84.55
2017-09-15T04:10:26.391Z,85.31
2017-09-15T04:11:26.391Z,84.74
2017-09-15T04:12:26.389Z,84.83
2017-09-15T04:13:26.390Z,85.12
2017-09-15T04:14:26.392Z,85.02
2017-09-15T04:15:26.392Z,85.88
2017-09-15T04:16:26.392Z,85.69
2017-09-15T04:17:26.388Z,85.88
2017-09-15T04:18:26.388Z,85.60
2017-09-15T04:19:26.388Z,85.21
2017-09-15T04:20:26.387Z,84.92
2017-09-15T04:21:26.387Z,85.78
2017-09-15T04:22:26.387Z,85.60
2017-09-15T04:23:26.387Z,85.88
2017-09-15T04:24:26.386Z,84.83
2017-09-15T04:25:26.386Z,86.74
2017-09-15T04:26:26.384Z,85.69
2017-09-15T04:27:26.384Z,85.12
2017-09-15T04:28:26.385Z,85.60
2017-09-15T04:29:26.380Z,84.74
2017-09-15T04:30:26.383Z,85.31
2017-09-15T04:31:26.386Z,84.92
2017-09-15T04:32:26.382Z,84.92
2017-09-15T04:33:26.384Z,86.07
2017-09-15T04:34:26.382Z,84.92
2017-09-15T04:35:26.379Z,85.02
2017-09-15T04:36:26.386Z,85.31
2017-09-15T04:37:26.380Z,85.31
2017-09-15T04:38:26.401Z,84.74
2017-09-15T04:39:26.379Z,84.92
2017-09-15T04:40:26.380Z,84.16
2017-09-15T04:41:26.380Z,84.74
2017-09-15T04:42:26.379Z,84.36
2017-09-15T04:43:26.382Z,85.21
2017-09-15T04:44:26.378Z,84.92
2017-09-15T04:45:26.377Z,85.50
2017-09-15T04:46:26.378Z,85.31
2017-09-15T04:47:26.376Z,84.83
2017-09-15T04:48:26.377Z,85.78
2017-09-15T04:49:26.375Z,86.36
2017-09-15T04:50:26.381Z,85.60
2017-09-15T04:51:26.377Z,84.92
2017-09-15T04:52:26.379Z,86.16
2017-09-15T04:53:26.375Z,84.83
2017-09-15T04:54:26.375Z,84.83
2017-09-15T04:55:26.374Z,85.50
2017-09-15T04:56:26.374Z,85.21
2017-09-15T04:57:26.375Z,86.16
2017-09-15T04:58:26.372Z,85.12
2017-09-15T04:59:26.374Z,85.02
2017-09-15T05:00:26.372Z,85.02
2017-09-15T05:01:26.376Z,84.74
2017-09-15T05:02:26.375Z,86.16
2017-09-15T05:03:26.375Z,85.50
2017-09-15T05:04:26.373Z,86.07
2017-09-15T05:05:26.375Z,85.02
2017-09-15T05:06:26.370Z,84.64
2017-09-15T05:07:26.371Z,84.26
2017-09-15T05:08:26.371Z,84.64
2017-09-15T05:09:26.370Z,85.12
2017-09-15T05:10:26.370Z,84.55
2017-09-15T05:11:26.369Z,85.02
2017-09-15T05:12:26.368Z,85.02
2017-09-15T05:13:26.369Z,84.45
2017-09-15T05:14:26.371Z,83.97
2017-09-15T05:15:26.369Z,83.59
2017-09-15T05:16:26.367Z,84.45
2017-09-15T05:17:26.371Z,85.02
2017-09-15T05:18:26.367Z,84.45
2017-09-15T05:19:26.373Z,84.07
2017-09-15T05:20:26.368Z,83.69
2017-09-15T05:21:26.371Z,83.69
2017-09-15T05:22:26.368Z,83.12
2017-09-15T05:23:26.367Z,83.21
2017-09-15T05:24:26.365Z,83.88
2017-09-15T05:25:26.380Z,83.88
2017-09-15T05:26:26.367Z,83.40
2017-09-15T05:27:26.365Z,83.88
2017-09-15T05:28:26.367Z,83.02
2017-09-15T05:29:26.364Z,83.06
2017-09-15T05:30:26.366Z,83.59
2017-09-15T05:31:26.368Z,83.35
2017-09-15T05:32:26.367Z,85.12
2017-09-15T05:33:26.365Z,84.11
2017-09-15T05:34:26.383Z,83.92
2017-09-15T05:35:26.365Z,83.25
2017-09-15T05:36:26.369Z,83.16
2017-09-15T05:37:26.364Z,84.01
2017-09-15T05:38:26.365Z,83.06
2017-09-15T05:39:26.365Z,82.68
2017-09-15T05:40:26.366Z,82.45
2017-09-15T05:41:26.367Z,82.59
2017-09-15T05:42:26.363Z,82.30
2017-09-15T05:43:26.365Z,83.25
2017-09-15T05:44:26.364Z,82.49
2017-09-15T05:45:26.365Z,82.68
2017-09-15T05:46:26.366Z,82.64
2017-09-15T05:47:26.366Z,82.40
2017-09-15T05:48:26.364Z,82.49
2017-09-15T05:49:26.364Z,82.78
2017-09-15T05:50:26.368Z,82.59
2017-09-15T05:51:26.370Z,82.87
2017-09-15T05:52:26.363Z,82.97
2017-09-15T05:53:26.364Z,82.49
2017-09-15T05:54:26.364Z,82.68
2017-09-15T05:55:26.363Z,82.40
2017-09-15T05:56:26.363Z,82.49
2017-09-15T05:57:26.365Z,82.49
2017-09-15T05:58:26.364Z,82.49
2017-09-15T05:59:26.365Z,82.68
2017-09-15T06:00:26.360Z,82.49
2017-09-15T06:01:26.367Z,82.49
2017-09-15T06:02:26.363Z,81.63
2017-09-15T06:03:26.366Z,81.92
2017-09-15T06:04:26.367Z,81.54
2017-09-15T06:05:26.367Z,81.92
2017-09-15T06:06:26.368Z,81.25
2017-09-15T06:07:26.365Z,82.78
2017-09-15T06:08:26.368Z,81.82
2017-09-15T06:09:26.366Z,81.82
2017-09-15T06:10:26.368Z,81.06
2017-09-15T06:11:26.371Z,81.10
2017-09-15T06:12:26.368Z,81.38
2017-09-15T06:13:26.372Z,80.72
2017-09-15T06:14:26.369Z,81.38
2017-09-15T06:15:26.369Z,81.48
2017-09-15T06:16:26.370Z,80.81
2017-09-15T06:17:26.372Z,81.38
2017-09-15T06:18:26.373Z,80.81
2017-09-15T06:19:26.374Z,80.91
2017-09-15T06:20:26.373Z,80.53
2017-09-15T06:21:26.375Z,81.20
2017-09-15T06:22:26.373Z,81.96
2017-09-15T06:23:26.378Z,80.81
2017-09-15T06:24:26.376Z,81.48
2017-09-15T06:25:26.375Z,81.38
2017-09-15T06:26:26.395Z,80.33
2017-09-15T06:27:26.381Z,81.20
2017-09-15T06:28:26.384Z,81.29
2017-09-15T06:29:26.387Z,81.29
2017-09-15T06:30:26.378Z,80.91
2017-09-15T06:31:26.381Z,81.48
2017-09-15T06:32:26.384Z,81.01
2017-09-15T06:33:26.381Z,80.33
2017-09-15T06:34:26.382Z,80.19
2017-09-15T06:35:26.384Z,79.57
2017-09-15T06:36:26.384Z,79.10
2017-09-15T06:37:26.385Z,79.48
2017-09-15T06:38:26.386Z,79.67
2017-09-15T06:39:26.391Z,81.04
2017-09-15T06:40:26.387Z,79.71
2017-09-15T06:41:26.392Z,79.71
2017-09-15T06:42:26.389Z,79.52
2017-09-15T06:43:26.391Z,80.19
2017-09-15T06:44:26.404Z,79.71
2017-09-15T06:45:26.392Z,79.80
2017-09-15T06:46:26.393Z,78.18
2017-09-15T06:47:26.394Z,78.09
2017-09-15T06:48:26.407Z,78.18
2017-09-15T06:49:26.395Z,78.66
2017-09-15T06:50:26.425Z,77.99
2017-09-15T06:51:26.398Z,77.13
2017-09-15T06:52:26.401Z,76.94
2017-09-15T06:53:26.411Z,77.99
2017-09-15T06:54:26.403Z,77.80
2017-09-15T06:55:26.401Z,78.28
2017-09-15T06:56:26.416Z,78.66
2017-09-15T06:57:26.405Z,78.75
2017-09-15T06:58:26.407Z,78.18
2017-09-15T06:59:26.402Z,78.09
2017-09-15T07:00:26.414Z,78.18
2017-09-15T07:01:26.414Z,78.75
2017-09-15T07:02:26.411Z,78.18
2017-09-15T07:03:26.413Z,78.28
2017-09-15T07:04:26.412Z,78.75
2017-09-15T07:05:26.415Z,78.56
2017-09-15T07:06:26.416Z,78.18
2017-09-15T07:07:26.417Z,77.51
2017-09-15T07:08:26.414Z,77.61
2017-09-15T07:09:26.418Z,78.37
2017-09-15T07:10:26.421Z,77.99
2017-09-15T07:11:26.425Z,77.23
2017-09-15T07:12:26.423Z,78.18
2017-09-15T07:13:26.425Z,77.42
2017-09-15T07:14:26.426Z,77.70
2017-09-15T07:15:26.430Z,77.03
2017-09-15T07:16:26.434Z,77.23
2017-09-15T07:17:26.429Z,77.89
2017-09-15T07:18:26.431Z,77.13
2017-09-15T07:19:26.433Z,77.13
2017-09-15T07:20:26.432Z,77.32
2017-09-15T07:21:26.434Z,76.94
2017-09-15T07:22:26.431Z,76.94
2017-09-15T07:23:26.438Z,76.46
2017-09-15T07:24:26.441Z,76.37
2017-09-15T07:25:26.438Z,76.69
2017-09-15T07:26:26.440Z,76.50
2017-09-15T07:27:26.441Z,75.16
2017-09-15T07:28:26.447Z,74.59
2017-09-15T07:29:26.443Z,76.21
2017-09-15T07:30:26.445Z,74.69
2017-09-15T07:31:26.451Z,74.30
2017-09-15T07:32:26.450Z,75.07
2017-09-15T07:33:26.451Z,74.40
2017-09-15T07:34:26.453Z,74.69
2017-09-15T07:35:26.462Z,74.15
2017-09-15T07:36:26.457Z,75.01
2017-09-15T07:37:26.458Z,72.91
2017-09-15T07:38:26.459Z,73.10
2017-09-15T07:39:26.459Z,73.67
2017-09-15T07:40:26.464Z,73.58
2017-09-15T07:41:26.472Z,72.91
2017-09-15T07:42:26.479Z,71.76
2017-09-15T07:43:26.466Z,72.33
2017-09-15T07:44:26.469Z,72.91
2017-09-15T07:45:26.470Z,72.24
2017-09-15T07:46:26.476Z,72.72
2017-09-15T07:47:26.478Z,73.19
2017-09-15T07:48:26.487Z,73.10
2017-09-15T07:49:26.480Z,72.24
2017-09-15T07:50:26.483Z,72.72
2017-09-15T07:51:26.491Z,73.67
2017-09-15T07:52:26.487Z,73.10
2017-09-15T07:53:26.490Z,72.81
2017-09-15T07:54:26.495Z,73.19
2017-09-15T07:55:26.496Z,72.05
2017-09-15T07:56:26.497Z,72.33
2017-09-15T07:57:26.498Z,72.68
2017-09-15T07:58:26.499Z,72.78
2017-09-15T07:59:26.503Z,72.91
2017-09-15T08:00:26.506Z,73.67
2017-09-15T08:01:26.503Z,73.39
2017-09-15T08:02:26.514Z,73.19
2017-09-15T08:03:26.520Z,73.00
2017-09-15T08:04:26.516Z,72.81
2017-09-15T08:05:26.518Z,72.91
2017-09-15T08:06:26.533Z,72.91
2017-09-15T08:07:26.520Z,71.57
2017-09-15T08:08:26.520Z,71.57
2017-09-15T08:09:26.525Z,72.14
2017-09-15T08:10:26.525Z,72.91
2017-09-15T08:11:26.528Z,71.57
2017-09-15T08:12:26.531Z,71.70
2017-09-15T08:13:26.533Z,72.47
2017-09-15T08:14:26.532Z,72.28
2017-09-15T08:15:26.542Z,71.89
2017-09-15T08:16:26.541Z,70.84
2017-09-15T08:17:26.542Z,71.51
2017-09-15T08:18:26.548Z,71.61
2017-09-15T08:19:26.551Z,72.37
2017-09-15T08:20:26.550Z,70.84
2017-09-15T08:21:26.569Z,70.94
2017-09-15T08:22:26.556Z,71.03
2017-09-15T08:23:26.553Z,69.41
2017-09-15T08:24:26.561Z,70.27
2017-09-15T08:25:26.564Z,69.89
2017-09-15T08:26:26.566Z,69.89
2017-09-15T08:27:26.567Z,70.84
2017-09-15T08:28:26.572Z,71.42
2017-09-15T08:29:26.579Z,70.27
2017-09-15T08:30:26.578Z,70.07
2017-09-15T08:31:26.583Z,70.94
2017-09-15T08:32:26.582Z,70.56
2017-09-15T08:33:26.584Z,70.04
2017-09-15T08:34:26.588Z,70.61
2017-09-15T08:35:26.591Z,70.81
2017-09-15T08:36:26.598Z,71.28
2017-09-15T08:37:26.597Z,71.76
2017-09-15T08:38:26.608Z,72.72
2017-09-15T08:39:26.605Z,71.80
2017-09-15T08:40:26.600Z,71.70
2017-09-15T08:41:26.607Z,69.50
2017-09-15T08:42:26.609Z,69.02
2017-09-15T08:43:26.610Z,69.15
2017-09-15T08:44:26.614Z,69.35
2017-09-15T08:45:26.617Z,67.63
2017-09-15T08:46:26.619Z,67.37
2017-09-15T08:47:26.619Z,67.14
2017-09-15T08:48:26.624Z,67.05
2017-09-15T08:49:26.627Z,67.91
2017-09-15T08:50:26.627Z,68.39
2017-09-15T08:51:26.635Z,68.68
2017-09-15T08:52:26.636Z,67.91
2017-09-15T08:53:26.653Z,67.56
2017-09-15T08:54:26.641Z,66.03
2017-09-15T08:55:26.643Z,67.66
2017-09-15T08:56:26.647Z,66.86
2017-09-15T08:57:26.653Z,66.00
2017-09-15T08:58:26.655Z,66.47
2017-09-15T08:59:26.659Z,67.24
2017-09-15T09:00:26.661Z,66.86
2017-09-15T09:01:26.665Z,67.18
2017-09-15T09:02:26.670Z,67.94
2017-09-15T09:03:26.665Z,67.18
2017-09-15T09:04:26.677Z,65.84
2017-09-15T09:05:26.681Z,65.08
2017-09-15T09:06:26.680Z,65.84
2017-09-15T09:07:26.686Z,65.74
2017-09-15T09:08:26.690Z,65.08
2017-09-15T09:09:26.691Z,66.03
2017-09-15T09:10:26.695Z,65.14
2017-09-15T09:11:26.713Z,64.95
2017-09-15T09:12:26.703Z,65.90
2017-09-15T09:13:26.763Z,65.90
2017-09-15T09:14:26.710Z,66.99
2017-09-15T09:15:26.716Z,66.41
2017-09-15T09:16:26.718Z,67.18
2017-09-15T09:17:26.723Z,66.61
2017-09-15T09:18:26.726Z,65.17
2017-09-15T09:19:26.727Z,65.08
2017-09-15T09:20:26.728Z,64.98
2017-09-15T09:21:26.737Z,65.65
2017-09-15T09:22:26.738Z,66.80
2017-09-15T09:23:26.740Z,66.51
2017-09-15T09:24:26.743Z,64.79
2017-09-15T09:25:26.752Z,64.63
2017-09-15T09:26:26.755Z,64.72
2017-09-15T09:27:26.756Z,63.86
2017-09-15T09:28:26.760Z,65.11
2017-09-15T09:29:26.805Z,64.34
2017-09-15T09:30:26.775Z,63.89
2017-09-15T09:31:26.773Z,64.37
2017-09-15T09:32:26.779Z,63.80
2017-09-15T09:33:26.781Z,62.74
2017-09-15T09:34:26.790Z,62.36
2017-09-15T09:35:26.811Z,63.22
2017-09-15T09:36:26.816Z,63.22
2017-09-15T09:37:26.812Z,63.13
2017-09-15T09:38:26.839Z,63.22
2017-09-15T09:39:26.817Z,63.03
2017-09-15T09:40:26.849Z,63.13
2017-09-15T09:41:26.833Z,63.03
2017-09-15T09:42:26.823Z,62.07
2017-09-15T09:43:26.829Z,62.36
2017-09-15T09:44:26.838Z,62.33
2017-09-15T09:45:26.839Z,62.14
2017-09-15T09:46:26.839Z,63.19
2017-09-15T09:47:26.865Z,63.19
2017-09-15T09:48:26.851Z,63.96
2017-09-15T09:49:26.854Z,63.99
2017-09-15T09:50:26.857Z,63.03
2017-09-15T09:51:26.876Z,63.80
2017-09-15T09:52:26.869Z,62.74
2017-09-15T09:53:26.869Z,62.43
2017-09-15T09:54:26.888Z,62.71
2017-09-15T09:55:26.880Z,64.05
2017-09-15T09:56:26.879Z,63.19
2017-09-15T09:57:26.886Z,63.19
2017-09-15T09:58:26.897Z,64.25
2017-09-15T09:59:26.901Z,64.82
2017-09-15T10:00:26.907Z,63.48
2017-09-15T10:01:26.912Z,64.05
2017-09-15T10:02:26.913Z,63.60
2017-09-15T10:03:26.919Z,62.65
2017-09-15T10:04:26.924Z,61.31
2017-09-15T10:05:26.927Z,62.46
2017-09-15T10:06:26.932Z,60.73
2017-09-15T10:07:26.939Z,61.31
2017-09-15T10:08:26.942Z,59.48
2017-09-15T10:09:26.947Z,61.21
2017-09-15T10:10:26.954Z,60.09
2017-09-15T10:11:26.955Z,60.28
2017-09-15T10:12:26.960Z,58.94
2017-09-15T10:13:26.963Z,58.37
2017-09-15T10:14:26.970Z,58.37
2017-09-15T10:15:26.970Z,58.27
2017-09-15T10:16:26.985Z,57.89
2017-09-15T10:17:26.983Z,58.37
2017-09-15T10:18:26.989Z,56.93
2017-09-15T10:19:26.996Z,57.50
2017-09-15T10:20:27.000Z,59.83
2017-09-15T10:21:27.004Z,58.59
2017-09-15T10:22:27.006Z,58.49
2017-09-15T10:23:27.015Z,58.78
2017-09-15T10:24:27.019Z,59.74
2017-09-15T10:25:27.029Z,58.30
2017-09-15T10:26:27.027Z,58.78
2017-09-15T10:27:27.036Z,58.30
2017-09-15T10:28:27.050Z,57.82
2017-09-15T10:29:27.044Z,57.53
2017-09-15T10:30:27.051Z,57.53
2017-09-15T10:31:27.057Z,58.01
2017-09-15T10:32:27.066Z,57.63
2017-09-15T10:33:27.067Z,57.63
2017-09-15T10:34:27.074Z,58.11
2017-09-15T10:35:27.078Z,57.53
2017-09-15T10:36:27.159Z,57.72
2017-09-15T10:37:27.091Z,57.63
2017-09-15T10:38:27.094Z,56.96
2017-09-15T10:39:27.100Z,57.72
2017-09-15T10:40:27.106Z,57.72
2017-09-15T10:41:27.111Z,56.29
2017-09-15T10:42:27.118Z,56.38
2017-09-15T10:43:27.126Z,56.29
2017-09-15T10:44:27.131Z,56.76
2017-09-15T10:45:27.139Z,56.19
2017-09-15T10:46:27.140Z,57.34
2017-09-15T10:47:27.146Z,58.20
2017-09-15T10:48:27.160Z,59.16
2017-09-15T10:49:27.156Z,58.59
2017-09-15T10:50:27.163Z,56.38
2017-09-15T10:51:27.165Z,55.23
2017-09-15T10:52:27.177Z,55.42
2017-09-15T10:53:27.184Z,56.09
2017-09-15T10:54:27.183Z,56.60
2017-09-15T10:55:27.194Z,56.31
2017-09-15T10:56:27.199Z,55.55
2017-09-15T10:57:27.204Z,55.33
2017-09-15T10:58:27.208Z,56.12
2017-09-15T10:59:27.244Z,55.13
2017-09-15T11:00:27.220Z,56.31
2017-09-15T11:01:27.230Z,55.64
2017-09-15T11:02:27.232Z,55.04
2017-09-15T11:03:27.236Z,56.70
2017-09-15T11:04:27.242Z,55.26
2017-09-15T11:05:27.248Z,54.66
2017-09-15T11:06:27.254Z,54.66
2017-09-15T11:07:27.259Z,55.13
2017-09-15T11:08:27.265Z,56.29
2017-09-15T11:09:27.270Z,56.38
2017-09-15T11:10:27.275Z,56.67
2017-09-15T11:11:27.280Z,57.06
2017-09-15T11:12:27.288Z,56.98
2017-09-15T11:13:27.292Z,57.08
2017-09-15T11:14:27.296Z,55.16
2017-09-15T11:15:27.303Z,54.58
2017-09-15T11:16:27.313Z,55.16
2017-09-15T11:17:27.316Z,54.58
2017-09-15T11:18:27.321Z,54.39
2017-09-15T11:19:27.326Z,53.44
2017-09-15T11:20:27.333Z,54.88
2017-09-15T11:21:27.337Z,54.33
2017-09-15T11:22:27.346Z,54.90
2017-09-15T11:23:27.349Z,53.53
2017-09-15T11:24:27.356Z,53.36
2017-09-15T11:25:27.373Z,53.53
2017-09-15T11:26:27.369Z,53.56
2017-09-15T11:27:27.386Z,53.85
2017-09-15T11:28:27.382Z,55.38
2017-09-15T11:29:27.385Z,53.36
2017-09-15T11:30:27.395Z,51.86
2017-09-15T11:31:27.408Z,52.02
2017-09-15T11:32:27.407Z,52.79
2017-09-15T11:33:27.411Z,53.78
2017-09-15T11:34:27.414Z,52.24
2017-09-15T11:35:27.421Z,52.72
2017-09-15T11:36:27.432Z,53.78
2017-09-15T11:37:27.476Z,53.68
2017-09-15T11:38:27.444Z,51.37
2017-09-15T11:39:27.457Z,51.76
2017-09-15T11:40:27.456Z,52.72
2017-09-15T11:41:27.463Z,52.22
2017-09-15T11:42:27.469Z,52.62
2017-09-15T11:43:27.477Z,52.12
2017-09-15T11:44:27.478Z,51.54
2017-09-15T11:45:27.490Z,51.54
2017-09-15T11:46:27.496Z,52.50
2017-09-15T11:47:27.503Z,51.90
2017-09-15T11:48:27.506Z,51.71
2017-09-15T11:49:27.514Z,53.53
2017-09-15T11:50:27.522Z,54.30
2017-09-15T11:51:27.527Z,53.34
2017-09-15T11:52:27.536Z,53.05
2017-09-15T11:53:27.541Z,53.34
2017-09-15T11:54:27.549Z,54.39
2017-09-15T11:55:27.552Z,55.45
2017-09-15T11:56:27.561Z,54.49
2017-09-15T11:57:27.564Z,52.95
2017-09-15T11:58:27.572Z,53.46
2017-09-15T11:59:27.578Z,53.85
2017-09-15T12:00:27.583Z,53.46
2017-09-15T12:01:27.590Z,52.31
2017-09-15T12:02:27.601Z,51.25
2017-09-15T12:03:27.600Z,50.10
2017-09-15T12:04:27.612Z,50.29
2017-09-15T12:05:27.610Z,52.31
2017-09-15T12:06:27.617Z,51.83
2017-09-15T12:07:27.622Z,51.54
2017-09-15T12:08:27.632Z,50.68
2017-09-15T12:09:27.642Z,51.45
2017-09-15T12:10:27.640Z,52.22
2017-09-15T12:11:27.657Z,51.06
2017-09-15T12:12:27.652Z,52.02
2017-09-15T12:13:27.661Z,51.04
2017-09-15T12:14:27.670Z,51.51
2017-09-15T12:15:27.672Z,52.48
2017-09-15T12:16:27.679Z,52.60
2017-09-15T12:17:27.686Z,52.48
2017-09-15T12:18:27.691Z,52.28
2017-09-15T12:19:27.697Z,53.24
2017-09-15T12:20:27.712Z,54.21
2017-09-15T12:21:27.708Z,54.68
2017-09-15T12:22:27.762Z,54.49
2017-09-15T12:23:27.725Z,54.78
2017-09-15T12:24:27.729Z,54.27
2017-09-15T12:25:27.731Z,55.23
2017-09-15T12:26:27.737Z,54.85
2017-09-15T12:27:27.743Z,54.37
2017-09-15T12:28:27.746Z,54.56
2017-09-15T12:29:27.753Z,55.45
2017-09-15T12:30:27.757Z,56.12
2017-09-15T12:31:27.766Z,54.97
2017-09-15T12:32:27.769Z,54.56
2017-09-15T12:33:27.794Z,53.89
2017-09-15T12:34:27.786Z,53.99
2017-09-15T12:35:27.791Z,54.75
2017-09-15T12:36:27.798Z,56.22
2017-09-15T12:37:27.792Z,54.30
2017-09-15T12:38:27.803Z,55.45
2017-09-15T12:39:27.818Z,54.49
2017-09-15T12:40:27.833Z,54.68
2017-09-15T12:41:27.818Z,53.53
2017-09-15T12:42:27.848Z,53.15
2017-09-15T12:43:27.833Z,53.53
2017-09-15T12:44:27.849Z,53.24
2017-09-15T12:45:27.847Z,53.44
2017-09-15T12:46:27.851Z,53.44
2017-09-15T12:47:27.856Z,53.34
2017-09-15T12:48:27.860Z,52.57
2017-09-15T12:49:27.864Z,53.44
2017-09-15T12:50:27.872Z,51.78
2017-09-15T12:51:27.875Z,52.57
2017-09-15T12:52:27.886Z,53.34